Time;durP1;ratioP1;P1;durP2;ratioP2;P2;SDS_P1;SDS_P2;PMS_P1;PMS_P2;Temp;Humidity;BMP_temperature;BMP_pressure;BME280_temperature;BME280_humidity;BME280_pressure;Samples;Min_cycle;Max_cycle;Signal;HPM_P1;HPM_P2
2023/03/30 00:00:16;;;;;;;;;3.67;3.67;;;;;17.87;48.40;100550.19;5053480;28;45443;-65
2023/03/30 00:02:44;;;;;;;;;4.00;4.00;;;;;17.85;48.79;100553.81;5052432;28;45783;-67
2023/03/30 00:05:10;;;;;;;;;7.00;5.00;;;;;17.85;48.79;100545.84;5053996;28;45581;-66
2023/03/30 00:07:43;;;;;;;;;4.00;4.00;;;;;17.79;49.54;100521.22;5035078;28;46455;-66
2023/03/30 00:10:17;;;;;;;;;6.00;5.33;;;;;17.91;49.60;100537.69;5053347;28;45896;-66
2023/03/30 00:12:46;;;;;;;;;6.00;6.00;;;;;17.86;49.64;100519.28;5035071;28;45642;-66
2023/03/30 00:15:14;;;;;;;;;5.00;4.00;;;;;17.89;49.87;100520.97;5053722;28;46046;-65
2023/03/30 00:17:40;;;;;;;;;6.00;6.00;;;;;17.90;49.84;100498.88;5049605;28;45893;-66
2023/03/30 00:20:12;;;;;;;;;5.33;5.33;;;;;17.82;50.52;100480.59;5048363;28;45572;-65
2023/03/30 00:22:42;;;;;;;;;9.67;6.00;;;;;17.72;50.99;100502.94;5036625;28;45356;-65
2023/03/30 00:25:12;;;;;;;;;6.67;5.00;;;;;17.66;51.29;100495.19;5033224;28;45556;-65
2023/03/30 00:27:39;;;;;;;;;5.33;5.00;;;;;17.67;51.16;100503.06;5032222;28;46566;-67
2023/03/30 00:30:07;;;;;;;;;6.33;6.33;;;;;17.65;50.93;100489.00;5024355;28;45726;-66
2023/03/30 00:32:33;;;;;;;;;7.00;4.67;;;;;17.61;50.93;100482.09;5037272;28;45375;-66
2023/03/30 00:35:09;;;;;;;;;6.33;5.00;;;;;17.53;50.79;100479.66;5021504;28;45568;-66
2023/03/30 00:37:36;;;;;;;;;9.67;4.67;;;;;17.42;50.62;100475.63;5040207;28;45412;-66
2023/03/30 00:40:06;;;;;;;;;7.33;6.00;;;;;17.31;50.65;100465.34;5048407;28;45526;-66
2023/03/30 00:42:36;;;;;;;;;6.00;5.00;;;;;17.33;50.81;100476.78;5033221;28;45348;-66
2023/03/30 00:45:18;;;;;;;;;4.00;4.00;;;;;17.29;50.41;100472.47;5033934;28;45712;-66
2023/03/30 00:48:23;;;;;;;;;7.33;4.67;;;;;17.24;50.57;100475.25;5037249;28;46587;-65
2023/03/30 00:50:58;;;;;;;;;6.00;6.00;;;;;17.23;51.17;100470.03;4984201;28;45567;-66
2023/03/30 00:53:37;;;;;;;;;6.00;6.00;;;;;17.07;52.30;100481.03;4982090;28;46081;-66
2023/03/30 00:56:09;;;;;;;;;7.67;6.00;;;;;17.05;52.52;100468.78;5022205;28;45775;-66
2023/03/30 00:58:37;;;;;;;;;8.33;6.00;;;;;17.04;52.99;100483.78;5036512;28;45643;-66
2023/03/30 01:01:06;;;;;;;;;6.00;5.67;;;;;16.97;53.28;100469.00;5045160;28;45601;-66
2023/03/30 01:03:36;;;;;;;;;5.67;5.67;;;;;16.99;53.63;100480.41;5036426;28;45482;-67
2023/03/30 01:06:06;;;;;;;;;5.33;5.00;;;;;16.99;54.10;100461.00;5029430;28;45425;-65
2023/03/30 01:08:32;;;;;;;;;7.00;6.00;;;;;17.01;53.87;100480.34;5032567;28;45741;-65
2023/03/30 01:11:02;;;;;;;;;9.33;7.00;;;;;17.01;53.78;100475.06;5020148;28;45498;-66
2023/03/30 01:13:29;;;;;;;;;8.00;6.00;;;;;16.92;53.93;100458.53;5032638;28;45507;-66
2023/03/30 01:16:10;;;;;;;;;5.00;5.00;;;;;17.05;53.33;100482.00;5033146;28;45477;-66
2023/03/30 01:18:43;;;;;;;;;5.00;5.00;;;;;17.07;53.68;100488.13;5033046;28;46221;-66
2023/03/30 01:21:39;;;;;;;;;4.33;4.33;;;;;16.83;54.15;100460.59;5022463;28;45667;-67
2023/03/30 01:24:14;;;;;;;;;6.00;5.00;;;;;16.96;53.70;100483.13;5038225;28;45717;-67
2023/03/30 01:26:50;;;;;;;;;4.00;4.00;;;;;16.95;53.75;100476.97;5032501;28;45651;-66
2023/03/30 01:29:33;;;;;;;;;4.67;4.00;;;;;16.98;53.66;100480.44;5027665;28;45761;-66
2023/03/30 01:32:32;;;;;;;;;6.00;3.33;;;;;16.98;53.65;100457.50;5034712;28;45452;-66
2023/03/30 01:35:06;;;;;;;;;6.00;5.00;;;;;16.98;53.74;100476.00;5026552;28;45306;-66
2023/03/30 01:37:46;;;;;;;;;4.33;4.00;;;;;16.97;53.69;100479.59;5032929;28;45770;-66
2023/03/30 01:40:20;;;;;;;;;4.00;3.00;;;;;16.96;53.65;100499.00;5035204;28;46094;-66
2023/03/30 01:42:57;;;;;;;;;3.00;3.00;;;;;16.94;53.61;100516.69;5035692;28;45422;-67
2023/03/30 01:45:26;;;;;;;;;4.00;4.00;;;;;16.97;53.68;100521.06;5035520;28;45472;-66
2023/03/30 01:48:08;;;;;;;;;4.00;2.00;;;;;16.92;53.58;100490.28;5022965;28;45247;-65
2023/03/30 01:50:42;;;;;;;;;4.33;3.00;;;;;16.92;53.70;100494.72;5035361;28;45737;-65
2023/03/30 01:53:17;;;;;;;;;5.67;4.00;;;;;16.97;53.82;100497.25;5053527;28;45369;-66
2023/03/30 01:55:51;;;;;;;;;2.67;2.67;;;;;16.98;53.38;100505.13;5055955;28;45553;-66
2023/03/30 01:58:34;;;;;;;;;2.00;2.00;;;;;16.92;53.27;100485.00;5055721;28;45483;-66
2023/03/30 02:01:02;;;;;;;;;6.00;2.00;;;;;17.01;53.04;100499.72;5054020;28;47019;-66
2023/03/30 02:03:31;;;;;;;;;4.00;2.67;;;;;16.97;52.91;100490.16;5039983;28;45454;-67
2023/03/30 02:06:19;;;;;;;;;5.00;3.67;;;;;16.98;53.15;100476.00;5059185;28;45882;-66
2023/03/30 02:08:49;;;;;;;;;3.33;3.33;;;;;16.96;52.85;100459.31;5040844;28;45363;-65
2023/03/30 02:11:15;;;;;;;;;2.33;2.00;;;;;16.91;52.86;100456.78;5057526;28;45745;-66
2023/03/30 02:13:42;;;;;;;;;3.67;3.67;;;;;16.89;52.74;100476.28;5038001;28;45945;-66
2023/03/30 02:16:25;;;;;;;;;3.33;3.00;;;;;16.90;52.71;100486.81;5055187;28;45372;-66
2023/03/30 02:18:58;;;;;;;;;3.00;3.00;;;;;16.78;52.75;100473.91;5056056;28;45470;-66
2023/03/30 02:21:26;;;;;;;;;2.67;2.67;;;;;16.84;52.73;100500.19;5039079;28;45542;-67
2023/03/30 02:23:57;;;;;;;;;3.00;2.00;;;;;16.73;53.13;100503.13;5041239;28;45425;-66
2023/03/30 02:26:26;;;;;;;;;5.00;3.00;;;;;16.86;52.96;100521.34;5058718;28;45528;-66
2023/03/30 02:28:52;;;;;;;;;3.33;3.00;;;;;16.77;52.76;100503.03;5054612;28;45505;-65
2023/03/30 02:31:18;;;;;;;;;3.00;2.67;;;;;16.81;52.95;100499.44;5037032;28;47251;-66
2023/03/30 02:34:01;;;;;;;;;3.67;3.00;;;;;16.85;52.69;100499.31;5053584;28;45461;-66
2023/03/30 02:36:53;;;;;;;;;3.00;1.67;;;;;16.86;52.70;100532.78;5057617;28;45373;-67
2023/03/30 02:39:38;;;;;;;;;3.33;2.67;;;;;16.83;52.88;100543.44;5011620;28;45785;-65
2023/03/30 02:42:25;;;;;;;;;3.67;2.00;;;;;16.81;52.73;100553.19;5054947;28;45561;-66
2023/03/30 02:45:45;;;;;;;;;6.00;2.00;;;;;16.78;52.83;100552.41;5054655;28;45524;-66
2023/03/30 02:48:36;;;;;;;;;5.00;3.00;;;;;16.77;52.93;100561.22;4995525;28;45448;-66
2023/03/30 02:51:13;;;;;;;;;5.00;1.67;;;;;16.72;52.84;100545.47;5027106;28;45290;-66
2023/03/30 02:54:11;;;;;;;;;4.00;2.00;;;;;16.69;53.17;100540.28;5046052;28;46530;-66
2023/03/30 02:56:46;;;;;;;;;2.00;2.00;;;;;16.70;53.04;100534.94;5054851;28;45539;-66
2023/03/30 02:59:46;;;;;;;;;1.67;1.00;;;;;16.67;53.06;100547.38;5053384;28;45486;-65
2023/03/30 03:02:18;;;;;;;;;2.67;2.00;;;;;16.65;53.16;100546.53;5035583;28;45460;-66
2023/03/30 03:04:48;;;;;;;;;2.00;2.00;;;;;16.62;52.99;100546.63;5037256;28;47067;-65
2023/03/30 03:07:13;;;;;;;;;2.67;1.00;;;;;16.63;53.09;100574.78;5056492;28;45536;-66
2023/03/30 03:09:40;;;;;;;;;1.00;1.00;;;;;16.59;53.25;100552.88;5058771;28;45434;-66
2023/03/30 03:12:06;;;;;;;;;2.67;1.33;;;;;16.59;53.35;100533.50;5053531;28;45452;-66
2023/03/30 03:14:31;;;;;;;;;1.33;1.33;;;;;16.48;53.53;100518.75;5041720;28;45855;-66
2023/03/30 03:16:57;;;;;;;;;3.00;1.67;;;;;16.53;53.55;100543.28;5054476;28;45473;-66
2023/03/30 03:19:23;;;;;;;;;2.00;2.00;;;;;16.47;53.90;100542.59;5035957;28;45474;-66
2023/03/30 03:21:49;;;;;;;;;3.67;2.00;;;;;16.50;53.82;100534.59;5055869;28;45541;-65
2023/03/30 03:24:16;;;;;;;;;3.33;2.00;;;;;16.49;54.03;100536.38;5037107;28;47383;-66
2023/03/30 03:26:42;;;;;;;;;3.67;1.00;;;;;16.41;54.10;100524.25;5052959;28;45709;-65
2023/03/30 03:29:08;;;;;;;;;3.00;1.00;;;;;16.51;53.91;100529.28;5038793;28;45644;-66
2023/03/30 03:31:34;;;;;;;;;2.00;2.00;;;;;16.47;54.12;100545.25;5040845;28;45497;-66
2023/03/30 03:34:00;;;;;;;;;2.00;2.00;;;;;16.48;54.29;100547.84;5038892;28;46614;-65
2023/03/30 03:36:26;;;;;;;;;3.00;1.67;;;;;16.38;54.40;100532.25;5054293;28;45365;-66
2023/03/30 03:38:52;;;;;;;;;2.00;1.67;;;;;16.44;53.99;100553.22;5054495;28;45873;-66
2023/03/30 03:41:17;;;;;;;;;7.00;2.00;;;;;16.33;54.30;100529.75;5035820;28;45651;-66
2023/03/30 03:43:43;;;;;;;;;1.00;1.00;;;;;16.39;54.66;100533.97;5035140;28;46687;-66
2023/03/30 03:46:09;;;;;;;;;2.00;2.00;;;;;16.41;54.42;100534.81;5053589;28;45490;-66
2023/03/30 03:48:34;;;;;;;;;1.00;1.00;;;;;16.37;54.37;100543.72;5054183;28;45875;-65
2023/03/30 03:51:00;;;;;;;;;1.33;1.00;;;;;16.38;54.54;100543.69;5035611;28;45371;-66
2023/03/30 03:53:27;;;;;;;;;3.33;2.00;;;;;16.43;54.77;100557.66;5054202;28;45449;-65
2023/03/30 03:55:53;;;;;;;;;2.00;1.00;;;;;16.37;54.53;100557.81;5053785;28;45623;-65
2023/03/30 03:58:20;;;;;;;;;1.33;1.00;;;;;16.36;54.88;100547.28;5035477;28;46012;-66
2023/03/30 04:00:45;;;;;;;;;1.00;1.00;;;;;16.26;54.98;100541.38;5051320;28;45762;-66
2023/03/30 04:03:11;;;;;;;;;2.00;2.00;;;;;16.16;55.18;100545.13;5032454;28;47910;-66
2023/03/30 04:05:37;;;;;;;;;3.00;1.67;;;;;16.27;54.82;100562.44;5053459;28;45422;-66
2023/03/30 04:08:03;;;;;;;;;3.33;1.67;;;;;16.25;55.14;100572.22;5054066;28;45384;-67
2023/03/30 04:10:29;;;;;;;;;3.00;1.33;;;;;16.23;55.30;100575.78;5036120;28;45492;-66
2023/03/30 04:12:55;;;;;;;;;2.00;2.00;;;;;16.16;54.98;100558.31;5053622;28;45657;-66
2023/03/30 04:15:22;;;;;;;;;2.00;2.00;;;;;16.12;55.77;100554.91;5053529;28;45577;-66
2023/03/30 04:17:48;;;;;;;;;2.67;2.67;;;;;16.16;55.46;100563.59;5053913;28;45795;-66
2023/03/30 04:20:15;;;;;;;;;2.33;2.33;;;;;16.10;55.75;100562.84;5053473;28;45522;-67
2023/03/30 04:22:42;;;;;;;;;2.67;2.00;;;;;16.02;55.94;100562.19;5053092;28;46490;-66
2023/03/30 04:25:13;;;;;;;;;1.33;1.33;;;;;15.99;56.01;100562.25;5053476;28;45491;-67
2023/03/30 04:27:42;;;;;;;;;3.67;1.00;;;;;15.89;56.00;100547.50;5053415;28;45794;-66
2023/03/30 04:30:09;;;;;;;;;1.67;1.67;;;;;15.89;56.36;100558.06;5054513;28;45952;-66
2023/03/30 04:32:37;;;;;;;;;2.33;2.00;;;;;15.89;56.42;100560.72;5039349;28;48137;-66
2023/03/30 04:35:07;;;;;;;;;2.00;2.00;;;;;15.83;56.50;100550.31;5057651;28;45345;-66
2023/03/30 04:37:34;;;;;;;;;1.00;1.00;;;;;15.85;56.45;100566.97;5057457;28;45363;-66
2023/03/30 04:40:04;;;;;;;;;3.33;1.33;;;;;15.78;56.64;100560.06;5039503;28;45549;-66
2023/03/30 04:42:32;;;;;;;;;2.33;1.00;;;;;15.74;56.89;100554.00;5054706;28;46334;-66
2023/03/30 04:44:59;;;;;;;;;2.00;2.00;;;;;15.71;57.01;100554.09;5035160;28;45569;-65
2023/03/30 04:47:28;;;;;;;;;3.00;2.00;;;;;15.66;57.04;100558.53;5053513;28;45515;-65
2023/03/30 04:49:54;;;;;;;;;1.50;1.50;;;;;15.67;57.48;100562.94;5053307;28;45284;-65
2023/03/30 04:52:20;;;;;;;;;1.67;1.67;;;;;15.65;57.13;100570.88;5052567;28;46307;-66
2023/03/30 04:54:45;;;;;;;;;2.00;1.33;;;;;15.62;57.78;100570.94;5052790;28;45470;-65
2023/03/30 04:57:15;;;;;;;;;2.00;2.00;;;;;15.63;57.34;100574.44;5052518;28;45805;-66
2023/03/30 04:59:42;;;;;;;;;2.33;1.00;;;;;15.59;57.58;100570.13;5052657;28;45783;-66
2023/03/30 05:02:08;;;;;;;;;2.00;2.00;;;;;15.56;57.53;100571.06;5046674;28;46084;-66
2023/03/30 05:04:34;;;;;;;;;4.33;1.00;;;;;15.56;57.53;100576.34;5026727;28;45511;-66
2023/03/30 05:07:00;;;;;;;;;1.67;1.67;;;;;15.58;57.39;100584.25;5053189;28;45331;-67
2023/03/30 05:09:27;;;;;;;;;4.00;2.33;;;;;15.56;57.93;100592.19;5053292;28;45590;-66
2023/03/30 05:11:52;;;;;;;;;2.00;2.00;;;;;15.48;57.91;100579.16;5056324;28;45508;-65
2023/03/30 05:14:18;;;;;;;;;1.00;1.00;;;;;15.55;57.87;100589.59;5056377;28;45490;-65
2023/03/30 05:16:44;;;;;;;;;2.33;2.00;;;;;15.52;58.00;100592.28;5055580;28;45524;-66
2023/03/30 05:19:09;;;;;;;;;5.67;3.00;;;;;15.40;58.35;100581.09;5056813;28;46144;-66
2023/03/30 05:21:35;;;;;;;;;4.33;3.00;;;;;15.51;57.93;100609.03;5037775;28;45654;-65
2023/03/30 05:24:00;;;;;;;;;4.33;3.00;;;;;15.51;57.93;100630.16;5056057;28;45859;-66
2023/03/30 05:26:26;;;;;;;;;3.67;3.00;;;;;15.50;58.22;100631.94;5038021;28;45477;-67
2023/03/30 05:28:53;;;;;;;;;1.00;1.00;;;;;15.37;58.12;100604.03;5055802;28;45473;-66
2023/03/30 05:31:20;;;;;;;;;2.33;1.00;;;;;15.48;58.31;100633.72;5037298;28;45586;-66
2023/03/30 05:33:45;;;;;;;;;2.00;2.00;;;;;15.45;57.85;100633.78;5055744;28;45502;-66
2023/03/30 05:36:12;;;;;;;;;2.33;2.33;;;;;15.47;57.89;100631.97;5055733;28;45395;-67
2023/03/30 05:38:37;;;;;;;;;3.67;2.00;;;;;15.48;58.28;100625.81;5056687;28;45503;-67
2023/03/30 05:41:05;;;;;;;;;3.33;1.67;;;;;15.56;58.01;100644.97;5055499;28;45836;-66
2023/03/30 05:43:33;;;;;;;;;2.33;2.00;;;;;15.48;58.21;100653.06;5037506;28;45802;-65
2023/03/30 05:46:01;;;;;;;;;4.00;2.00;;;;;15.41;58.72;100632.97;5039653;28;45406;-66
2023/03/30 05:48:27;;;;;;;;;3.00;1.67;;;;;15.42;58.17;100649.66;5057156;28;45422;-66
2023/03/30 05:50:53;;;;;;;;;2.33;2.00;;;;;15.37;58.36;100654.16;5055043;28;45798;-67
2023/03/30 05:53:18;;;;;;;;;1.00;1.00;;;;;15.32;59.18;100658.66;5037401;28;45506;-67
2023/03/30 05:55:48;;;;;;;;;5.00;2.00;;;;;15.31;58.82;100663.09;5055542;28;45410;-66
2023/03/30 05:58:15;;;;;;;;;2.00;2.00;;;;;15.24;59.03;100662.31;5054288;28;45435;-66
2023/03/30 06:00:42;;;;;;;;;2.67;2.00;;;;;15.20;59.29;100665.91;5036949;28;46949;-65
2023/03/30 06:03:09;;;;;;;;;4.00;2.33;;;;;15.25;59.42;100657.91;5044218;28;45754;-65
2023/03/30 06:05:37;;;;;;;;;3.00;1.33;;;;;15.25;59.18;100663.19;5058860;28;45815;-67
2023/03/30 06:08:04;;;;;;;;;5.67;2.67;;;;;15.27;59.18;100661.38;5054120;28;45540;-67
2023/03/30 06:10:30;;;;;;;;;2.67;1.67;;;;;15.47;59.03;100669.81;5053272;28;45613;-66
2023/03/30 06:12:56;;;;;;;;;2.67;2.33;;;;;15.64;58.45;100665.97;5054232;28;45587;-66
2023/03/30 06:15:22;;;;;;;;;5.67;3.00;;;;;15.81;58.59;100682.38;5037409;28;45485;-66
2023/03/30 06:17:48;;;;;;;;;2.00;2.00;;;;;15.70;58.33;100676.44;5055162;28;45442;-66
2023/03/30 06:20:13;;;;;;;;;2.33;2.33;;;;;15.53;58.55;100674.09;5053569;28;47422;-66
2023/03/30 06:22:40;;;;;;;;;4.00;2.33;;;;;15.54;58.53;100686.41;5057833;28;45532;-66
2023/03/30 06:25:07;;;;;;;;;3.00;1.33;;;;;15.51;58.86;100688.22;5054017;28;45528;-65
2023/03/30 06:27:33;;;;;;;;;2.67;2.00;;;;;15.51;58.86;100689.09;5036727;28;45612;-66
2023/03/30 06:29:59;;;;;;;;;2.00;2.00;;;;;15.50;58.86;100681.22;5054870;28;45567;-66
2023/03/30 06:32:25;;;;;;;;;3.00;3.00;;;;;15.54;58.84;100686.41;5054758;28;45507;-67
2023/03/30 06:34:52;;;;;;;;;2.33;2.00;;;;;15.40;59.11;100681.38;5054082;28;45418;-67
2023/03/30 06:37:18;;;;;;;;;4.33;3.33;;;;;15.46;59.09;100702.38;5055122;28;45529;-67
2023/03/30 06:39:44;;;;;;;;;2.67;2.00;;;;;15.49;59.03;100701.44;5058535;28;46299;-67
2023/03/30 06:42:10;;;;;;;;;3.00;3.00;;;;;15.56;58.73;100715.41;5055921;28;45524;-67
2023/03/30 06:44:36;;;;;;;;;2.67;1.00;;;;;15.53;58.77;100702.25;5054808;28;45513;-67
2023/03/30 06:47:04;;;;;;;;;2.33;2.00;;;;;15.43;59.04;100693.66;5054135;28;45725;-66
2023/03/30 06:49:30;;;;;;;;;4.67;1.67;;;;;15.54;58.51;100714.56;5035832;28;46934;-67
2023/03/30 06:51:55;;;;;;;;;2.33;2.00;;;;;15.59;58.43;100713.59;5054427;28;45490;-66
2023/03/30 06:54:21;;;;;;;;;5.67;2.00;;;;;15.56;58.47;100715.41;5055314;28;45254;-67
2023/03/30 06:56:47;;;;;;;;;2.00;2.00;;;;;15.59;58.64;100728.53;5058951;28;45873;-66
2023/03/30 06:59:14;;;;;;;;;5.00;4.00;;;;;15.57;59.03;100731.22;5058931;28;46188;-67
2023/03/30 07:01:40;;;;;;;;;4.00;3.00;;;;;15.41;59.36;100733.25;5022702;28;45445;-66
2023/03/30 07:04:07;;;;;;;;;2.00;2.00;;;;;15.49;59.28;100738.38;5024834;28;45577;-65
2023/03/30 07:06:33;;;;;;;;;3.00;2.00;;;;;15.53;59.09;100742.72;5055854;28;45469;-66
2023/03/30 07:08:59;;;;;;;;;3.33;3.00;;;;;15.57;58.94;100733.84;5056941;28;45355;-67
2023/03/30 07:11:25;;;;;;;;;2.00;2.00;;;;;15.58;58.80;100738.22;5054097;28;45431;-67
2023/03/30 07:13:50;;;;;;;;;2.33;2.00;;;;;15.64;58.77;100750.47;5032863;28;45394;-67
2023/03/30 07:16:16;;;;;;;;;4.67;2.00;;;;;15.71;58.77;100756.50;5038272;28;45555;-67
2023/03/30 07:18:45;;;;;;;;;3.00;2.00;;;;;15.66;58.52;100738.97;5037515;28;46130;-67
2023/03/30 07:21:11;;;;;;;;;3.33;3.00;;;;;15.71;58.28;100744.19;5034418;28;45630;-66
2023/03/30 07:23:39;;;;;;;;;2.67;2.67;;;;;15.81;58.58;100750.16;5033406;28;45398;-68
2023/03/30 07:26:09;;;;;;;;;2.67;2.33;;;;;15.92;57.85;100747.31;5022895;28;45458;-66
2023/03/30 07:28:39;;;;;;;;;4.33;3.00;;;;;15.99;57.76;100760.38;5039694;28;45473;-66
2023/03/30 07:31:10;;;;;;;;;2.00;2.00;;;;;16.07;57.45;100758.44;5034323;28;45390;-68
2023/03/30 07:33:36;;;;;;;;;3.33;2.00;;;;;16.12;57.20;100771.56;5040740;28;45435;-66
2023/03/30 07:36:02;;;;;;;;;1.00;1.00;;;;;16.15;56.97;100768.84;5032937;28;46191;-67
2023/03/30 07:38:28;;;;;;;;;4.67;2.33;;;;;16.19;57.07;100761.75;5032543;28;48169;-67
2023/03/30 07:40:54;;;;;;;;;2.33;2.33;;;;;16.32;56.62;100772.03;5031352;28;45353;-67
2023/03/30 07:43:19;;;;;;;;;3.33;3.33;;;;;16.51;56.19;100772.50;5034193;28;45320;-68
2023/03/30 07:45:45;;;;;;;;;2.67;2.00;;;;;16.63;55.69;100767.81;5032755;28;45327;-67
2023/03/30 07:48:11;;;;;;;;;2.67;2.00;;;;;16.70;55.51;100777.34;5034650;28;46184;-67
2023/03/30 07:50:36;;;;;;;;;2.33;2.00;;;;;16.71;54.97;100769.41;5036431;28;45508;-67
2023/03/30 07:53:02;;;;;;;;;1.67;1.00;;;;;16.85;55.07;100787.63;5033990;28;45686;-68
2023/03/30 07:55:28;;;;;;;;;5.33;2.33;;;;;16.99;54.48;100784.69;5034334;28;45550;-67
2023/03/30 07:57:56;;;;;;;;;2.67;2.00;;;;;17.08;54.29;100794.16;5032972;28;45746;-67
2023/03/30 08:00:22;;;;;;;;;7.33;1.67;;;;;16.90;53.99;100776.94;5036826;28;45919;-66
2023/03/30 08:02:48;;;;;;;;;3.33;1.67;;;;;16.99;53.55;100787.31;5033429;28;45378;-66
2023/03/30 08:05:14;;;;;;;;;1.00;1.00;;;;;17.05;52.81;100789.81;5047826;28;45446;-66
2023/03/30 08:07:40;;;;;;;;;5.33;3.00;;;;;17.09;52.96;100801.19;5047303;28;45935;-67
2023/03/30 08:10:07;;;;;;;;;3.00;2.67;;;;;17.19;52.67;100789.47;5038331;28;45707;-67
2023/03/30 08:12:33;;;;;;;;;3.00;2.00;;;;;17.23;52.52;100795.56;5052588;28;45508;-66
2023/03/30 08:15:00;;;;;;;;;3.00;1.00;;;;;17.30;52.48;100799.81;5051432;28;45714;-67
2023/03/30 08:17:26;;;;;;;;;3.33;2.00;;;;;17.31;52.05;100789.16;5032765;28;45542;-68
2023/03/30 08:19:51;;;;;;;;;2.00;1.00;;;;;17.42;51.64;100803.94;5050373;28;45505;-68
2023/03/30 08:22:17;;;;;;;;;2.00;2.00;;;;;17.40;51.72;100808.38;5031777;28;45471;-67
2023/03/30 08:24:43;;;;;;;;;6.00;2.00;;;;;17.52;51.27;100808.06;5038940;28;45686;-66
2023/03/30 08:27:08;;;;;;;;;3.00;3.00;;;;;17.55;51.28;100821.22;5046710;28;45527;-67
2023/03/30 08:29:34;;;;;;;;;4.00;2.00;;;;;17.61;50.88;100815.78;5049735;28;45577;-66
2023/03/30 08:32:00;;;;;;;;;3.33;2.00;;;;;17.59;51.21;100807.88;5043595;28;45528;-66
2023/03/30 08:34:26;;;;;;;;;3.00;2.33;;;;;17.67;51.15;100807.66;5050908;28;45427;-66
2023/03/30 08:36:51;;;;;;;;;2.00;2.00;;;;;17.72;51.19;100816.34;5037945;28;45417;-67
2023/03/30 08:39:17;;;;;;;;;3.00;2.33;;;;;17.70;51.23;100812.00;5047934;28;45591;-67
2023/03/30 08:41:46;;;;;;;;;2.33;2.00;;;;;17.81;51.42;100817.94;5038333;28;45400;-68
2023/03/30 08:44:34;;;;;;;;;4.33;2.00;;;;;17.85;51.15;100824.91;5052668;28;45385;-66
2023/03/30 08:47:03;;;;;;;;;3.67;1.33;;;;;17.83;51.44;100824.06;5035565;28;45464;-67
2023/03/30 08:49:37;;;;;;;;;3.33;3.00;;;;;17.80;51.27;100832.06;5037109;28;45461;-67
2023/03/30 08:52:08;;;;;;;;;4.33;3.00;;;;;17.76;51.61;100831.25;5036577;28;45659;-68
2023/03/30 08:54:33;;;;;;;;;3.67;2.00;;;;;17.51;51.56;100819.56;5040077;28;45274;-68
2023/03/30 08:57:25;;;;;;;;;5.00;2.00;;;;;17.60;51.43;100832.56;5036596;28;45451;-67
2023/03/30 09:00:10;;;;;;;;;7.33;2.33;;;;;17.55;51.65;100850.34;5019411;28;45639;-68
2023/03/30 09:02:47;;;;;;;;;4.33;1.33;;;;;17.38;51.92;100834.88;5034749;28;45506;-66
2023/03/30 09:05:25;;;;;;;;;3.00;1.00;;;;;17.33;51.90;100844.72;5054250;28;45583;-67
2023/03/30 09:08:28;;;;;;;;;2.00;2.00;;;;;17.11;52.44;100828.50;5056534;28;46082;-70
2023/03/30 09:11:05;;;;;;;;;2.33;2.00;;;;;17.12;53.56;100851.41;5049974;28;45303;-70
2023/03/30 09:13:34;;;;;;;;;3.00;2.00;;;;;17.04;53.27;100850.72;5050884;28;45446;-67
2023/03/30 09:16:13;;;;;;;;;5.00;4.00;;;;;17.03;53.76;100854.25;5055215;28;45823;-70
2023/03/30 09:18:44;;;;;;;;;4.67;4.00;;;;;17.07;53.58;100845.34;5037534;28;46758;-70
2023/03/30 09:21:12;;;;;;;;;2.00;1.00;;;;;17.11;53.27;100844.38;5059613;28;45454;-70
2023/03/30 09:23:38;;;;;;;;;2.33;2.00;;;;;17.16;53.35;100856.59;5060339;28;45418;-70
2023/03/30 09:26:34;;;;;;;;;2.33;1.00;;;;;17.06;53.14;100844.47;5060994;28;45573;-68
2023/03/30 09:29:13;;;;;;;;;1.67;1.67;;;;;16.94;53.46;100837.69;5060005;28;46237;-70
2023/03/30 09:31:43;;;;;;;;;3.33;2.00;;;;;17.03;53.40;100854.25;5038009;28;45637;-69
2023/03/30 09:34:38;;;;;;;;;1.00;1.00;;;;;17.01;53.72;100848.97;5056272;28;45303;-70
2023/03/30 09:37:20;;;;;;;;;3.67;3.67;;;;;17.36;53.43;100860.53;5038010;28;45679;-70
2023/03/30 09:39:47;;;;;;;;;5.00;2.00;;;;;17.53;53.06;100860.97;5037990;28;46730;-71
2023/03/30 09:42:20;;;;;;;;;5.00;1.00;;;;;17.60;52.88;100857.25;5054847;28;45595;-69
2023/03/30 09:44:57;;;;;;;;;3.33;2.00;;;;;17.85;53.62;100862.00;5037459;28;45476;-71
2023/03/30 09:47:42;;;;;;;;;4.67;2.00;;;;;17.94;51.87;100855.59;5054610;28;45746;-71
2023/03/30 09:50:21;;;;;;;;;6.67;2.00;;;;;17.99;51.72;100858.97;5037324;28;46586;-70
2023/03/30 09:53:17;;;;;;;;;4.00;2.00;;;;;18.16;51.65;100864.69;5056017;28;45304;-71
2023/03/30 09:56:13;;;;;;;;;5.00;2.00;;;;;18.20;50.66;100869.00;5037740;28;45521;-70
2023/03/30 09:58:39;;;;;;;;;2.67;2.67;;;;;18.17;51.17;100862.91;5043362;28;45378;-72
2023/03/30 10:01:18;;;;;;;;;3.00;1.33;;;;;18.11;51.02;100869.25;5055643;28;45569;-73
2023/03/30 10:04:04;;;;;;;;;4.33;2.67;;;;;18.01;51.12;100843.91;5040897;28;45466;-70
2023/03/30 10:06:37;;;;;;;;;2.67;1.33;;;;;18.04;50.77;100858.88;5037559;28;45335;-71
2023/03/30 10:09:10;;;;;;;;;6.67;3.00;;;;;17.87;50.84;100876.06;5055223;28;45847;-70
2023/03/30 10:11:44;;;;;;;;;2.00;2.00;;;;;17.84;50.80;100884.06;5036677;28;46892;-68
2023/03/30 10:14:38;;;;;;;;;5.67;3.00;;;;;17.70;50.01;100868.53;5054974;28;45792;-68
2023/03/30 10:17:23;;;;;;;;;4.67;3.00;;;;;17.69;50.29;100873.84;5028771;28;45450;-67
2023/03/30 10:19:51;;;;;;;;;3.00;2.00;;;;;17.65;50.37;100881.00;5054281;28;45414;-67
2023/03/30 10:22:22;;;;;;;;;4.33;2.00;;;;;17.88;50.06;100880.44;5054718;28;45661;-68
2023/03/30 10:24:53;;;;;;;;;3.00;1.67;;;;;18.20;49.16;100873.44;5054822;28;45556;-70
2023/03/30 10:27:27;;;;;;;;;5.00;2.33;;;;;18.32;48.70;100841.28;5037073;28;45418;-67
2023/03/30 10:29:52;;;;;;;;;5.33;2.00;;;;;18.39;48.33;100857.88;5055202;28;45395;-68
2023/03/30 10:32:25;;;;;;;;;4.00;4.00;;;;;18.41;48.32;100869.28;5053484;28;45373;-68
2023/03/30 10:35:00;;;;;;;;;6.00;4.00;;;;;18.40;48.25;100862.25;5020419;28;45383;-67
2023/03/30 10:37:32;;;;;;;;;6.33;2.33;;;;;18.32;48.80;100867.78;5055235;28;45386;-69
2023/03/30 10:40:01;;;;;;;;;5.67;2.00;;;;;17.96;48.97;100856.38;5037430;28;45612;-67
2023/03/30 10:42:30;;;;;;;;;4.33;1.33;;;;;17.94;49.64;100887.38;5036885;28;46719;-67
2023/03/30 10:45:03;;;;;;;;;20.33;12.33;;;;;18.00;50.34;100872.16;5055618;28;45439;-67
2023/03/30 10:47:37;;;;;;;;;834.50;632.83;;;;;18.36;50.85;100873.88;5057225;28;45431;-69
2023/03/30 10:50:19;;;;;;;;;79.00;60.75;;;;;18.63;49.36;100861.63;5055343;28;45370;-69
2023/03/30 10:53:03;;;;;;;;;76.00;53.75;;;;;18.95;49.10;100857.13;5057933;28;46146;-70
2023/03/30 10:55:50;;;;;;;;;66.75;50.00;;;;;19.51;47.31;100851.81;5058186;28;45513;-70
2023/03/30 10:58:28;;;;;;;;;38.50;30.25;;;;;19.78;46.34;100839.41;5021336;28;46167;-68
2023/03/30 11:01:20;;;;;;;;;15.67;15.67;;;;;19.65;45.24;100843.38;5043173;28;45612;-68
2023/03/30 11:03:52;;;;;;;;;11.50;8.00;;;;;19.63;45.58;100853.19;5038627;28;47016;-68
2023/03/30 11:06:25;;;;;;;;;8.00;7.00;;;;;19.60;45.15;100856.81;5054169;28;45827;-69
2023/03/30 11:08:53;;;;;;;;;6.67;3.00;;;;;19.48;45.10;100858.09;5054160;28;45792;-68
2023/03/30 11:11:22;;;;;;;;;12.67;7.00;;;;;19.48;45.25;100857.19;5036128;28;45585;-67
2023/03/30 11:13:56;;;;;;;;;7.67;6.67;;;;;19.40;45.37;100844.19;5047900;28;46203;-68
2023/03/30 11:16:51;;;;;;;;;3.00;1.67;;;;;19.59;44.86;100833.81;5037406;28;45700;-67
2023/03/30 11:20:00;;;;;;;;;41.75;31.00;;;;;20.00;44.02;100823.56;5055835;28;45503;-67
2023/03/30 11:22:37;;;;;;;;;3.67;2.00;;;;;20.51;42.11;100845.66;4990683;28;45454;-69
2023/03/30 11:25:24;;;;;;;;;8.00;3.00;;;;;20.75;40.97;100835.91;5005146;28;45436;-67
2023/03/30 11:28:08;;;;;;;;;13.33;10.00;;;;;21.13;39.38;100862.81;5032369;28;45473;-68
2023/03/30 11:30:35;;;;;;;;;6.33;3.33;;;;;21.63;39.03;100833.25;5025368;28;45693;-68
2023/03/30 11:33:28;;;;;;;;;3.33;2.00;;;;;21.99;38.25;100846.78;5053505;28;45557;-68
2023/03/30 11:35:59;;;;;;;;;2.33;2.00;;;;;21.43;39.01;100831.44;5045052;28;45489;-69
2023/03/30 11:38:32;;;;;;;;;5.00;2.33;;;;;20.92;39.72;100838.75;5058496;28;45465;-68
2023/03/30 11:41:09;;;;;;;;;7.67;3.67;;;;;20.40;40.77;100835.41;5043243;28;45472;-69
2023/03/30 11:43:35;;;;;;;;;7.00;1.67;;;;;20.12;40.94;100828.47;5054166;28;45514;-69